Time;durP1;ratioP1;P1;durP2;ratioP2;P2;SDS_P1;SDS_P2;PMS_P1;PMS_P2;Temp;Humidity;BMP_temperature;BMP_pressure;BME280_temperature;BME280_humidity;BME280_pressure;Samples;Min_cycle;Max_cycle;Signal;HPM_P1;HPM_P2
2023/05/29 00:00:32;;;;;;;3.55;1.90;;;19.90;40.50;;;;;;2313000;53;21096;-70
2023/05/29 00:03:01;;;;;;;4.15;2.00;;;19.80;40.60;;;;;;2314195;54;20943;-67
2023/05/29 00:05:28;;;;;;;4.68;1.95;;;19.80;40.60;;;;;;2555269;53;20951;-68
2023/05/29 00:07:55;;;;;;;5.62;2.15;;;19.70;40.60;;;;;;2549056;53;21213;-68
2023/05/29 00:10:21;;;;;;;3.67;1.60;;;19.60;40.60;;;;;;2309830;53;21483;-67
2023/05/29 00:12:51;;;;;;;3.58;1.70;;;19.60;40.60;;;;;;2314390;54;21456;-70
2023/05/29 00:15:17;;;;;;;4.43;1.75;;;19.60;40.80;;;;;;2554486;53;21878;-70
2023/05/29 00:17:44;;;;;;;4.62;2.33;;;19.50;40.90;;;;;;2553909;53;21016;-67
2023/05/29 00:20:14;;;;;;;5.25;2.00;;;19.40;40.80;;;;;;2554295;53;21002;-67
2023/05/29 00:22:44;;;;;;;5.07;1.85;;;19.40;41.00;;;;;;2313704;54;20970;-67
2023/05/29 00:25:11;;;;;;;4.57;2.30;;;19.30;41.80;;;;;;2553747;53;22424;-67
2023/05/29 00:27:38;;;;;;;4.35;2.08;;;19.20;41.10;;;;;;2291768;55;20982;-68
2023/05/29 00:30:09;;;;;;;4.18;1.85;;;19.20;41.20;;;;;;2315177;54;20947;-68
2023/05/29 00:32:37;;;;;;;3.80;1.77;;;19.10;41.20;;;;;;2317430;54;20921;-66
2023/05/29 00:35:04;;;;;;;3.75;1.73;;;19.00;41.10;;;;;;2551257;53;21083;-68
2023/05/29 00:37:31;;;;;;;5.55;1.92;;;19.00;41.20;;;;;;2314757;54;20959;-67
2023/05/29 00:39:58;;;;;;;3.33;1.62;;;18.90;41.30;;;;;;2313018;54;20982;-70
2023/05/29 00:42:24;;;;;;;4.22;1.95;;;18.90;41.40;;;;;;2554947;53;21066;-67
2023/05/29 00:44:51;;;;;;;3.90;1.87;;;18.80;42.10;;;;;;2314192;54;21444;-68
2023/05/29 00:47:17;;;;;;;3.95;1.85;;;18.80;41.60;;;;;;2313646;54;20955;-67
2023/05/29 00:49:44;;;;;;;4.25;1.92;;;18.80;41.70;;;;;;2554146;53;21007;-66
2023/05/29 00:52:10;;;;;;;3.70;1.92;;;18.70;41.70;;;;;;2314029;54;21047;-69
2023/05/29 00:54:38;;;;;;;4.57;1.90;;;18.70;41.80;;;;;;2314575;54;21484;-67
2023/05/29 00:57:04;;;;;;;4.18;1.65;;;18.60;41.80;;;;;;2553981;53;20983;-67
2023/05/29 00:59:33;;;;;;;3.95;1.60;;;18.60;41.90;;;;;;2314696;54;21575;-69
2023/05/29 01:02:05;;;;;;;3.42;1.70;;;18.50;41.90;;;;;;2553949;54;21027;-66
2023/05/29 01:04:33;;;;;;;3.70;1.98;;;18.50;41.90;;;;;;2314932;54;21014;-66
2023/05/29 01:07:03;;;;;;;3.92;1.60;;;18.50;41.90;;;;;;2551305;53;20942;-67
2023/05/29 01:09:30;;;;;;;4.30;1.95;;;18.40;42.00;;;;;;2310799;54;20959;-67
2023/05/29 01:12:41;;;;;;;3.67;1.85;;;18.20;41.90;;;;;;2314147;54;21416;-69
2023/05/29 01:15:24;;;;;;;3.85;1.83;;;18.30;42.40;;;;;;2554653;54;21011;-66
2023/05/29 01:18:18;;;;;;;5.85;2.37;;;18.20;42.20;;;;;;2314324;54;21599;-66
2023/05/29 01:20:58;;;;;;;4.30;1.92;;;18.20;42.80;;;;;;2318187;54;21019;-66
2023/05/29 01:24:15;;;;;;;3.60;1.70;;;18.10;42.20;;;;;;2553918;54;21339;-70
2023/05/29 01:27:25;;;;;;;3.62;1.87;;;18.10;42.70;;;;;;2553424;53;21055;-69
2023/05/29 01:29:51;;;;;;;3.30;1.60;;;18.10;43.00;;;;;;2554649;54;20943;-66
2023/05/29 01:32:18;;;;;;;4.75;2.22;;;18.00;42.40;;;;;;2554380;53;20967;-66
2023/05/29 01:34:45;;;;;;;5.15;1.90;;;17.90;42.40;;;;;;2554609;53;21003;-66
2023/05/29 01:37:11;;;;;;;4.00;1.73;;;17.90;42.50;;;;;;2314528;54;20925;-67
2023/05/29 01:39:39;;;;;;;4.12;1.90;;;17.80;42.40;;;;;;2553126;53;20991;-67
2023/05/29 01:42:06;;;;;;;3.20;1.58;;;17.80;42.50;;;;;;2554893;54;20943;-67
2023/05/29 01:44:35;;;;;;;3.20;1.50;;;17.70;42.60;;;;;;2313676;54;21027;-68
2023/05/29 01:47:02;;;;;;;3.65;2.00;;;17.70;42.70;;;;;;2312726;54;20971;-68
2023/05/29 01:49:29;;;;;;;4.12;1.85;;;17.60;42.70;;;;;;2315845;54;20993;-66
2023/05/29 01:51:55;;;;;;;4.18;2.10;;;17.60;42.90;;;;;;2312212;54;21342;-66
2023/05/29 01:54:22;;;;;;;3.95;1.95;;;17.50;43.00;;;;;;2313862;54;21066;-66
2023/05/29 01:56:48;;;;;;;3.92;1.87;;;17.50;43.10;;;;;;2314495;54;20939;-70
2023/05/29 01:59:16;;;;;;;3.22;1.58;;;17.50;43.10;;;;;;2554770;53;21015;-66
2023/05/29 02:01:43;;;;;;;3.35;1.70;;;17.50;43.10;;;;;;2554646;53;21412;-70
2023/05/29 02:04:09;;;;;;;4.57;2.00;;;17.40;43.10;;;;;;2549057;53;21426;-68
2023/05/29 02:06:35;;;;;;;3.97;2.12;;;17.40;43.10;;;;;;2314223;54;20982;-71
2023/05/29 02:09:02;;;;;;;4.45;1.60;;;17.40;43.20;;;;;;2553826;53;20960;-70
2023/05/29 02:11:29;;;;;;;3.90;1.70;;;17.30;43.20;;;;;;2314539;54;21046;-66
2023/05/29 02:13:55;;;;;;;3.97;2.00;;;17.30;43.20;;;;;;2313750;54;21562;-69
2023/05/29 02:16:21;;;;;;;4.35;1.95;;;17.20;43.40;;;;;;2313858;54;20947;-66
2023/05/29 02:18:48;;;;;;;4.80;1.92;;;17.20;43.60;;;;;;2549004;53;20981;-66
2023/05/29 02:21:16;;;;;;;4.10;2.10;;;17.10;43.50;;;;;;2314378;54;21014;-66
2023/05/29 02:23:44;;;;;;;5.40;2.10;;;17.20;43.70;;;;;;2314410;54;21027;-66
2023/05/29 02:26:12;;;;;;;4.70;2.30;;;17.10;43.70;;;;;;2314155;54;20991;-66
2023/05/29 02:28:40;;;;;;;3.60;1.58;;;17.00;43.70;;;;;;2313904;54;20966;-67
2023/05/29 02:31:06;;;;;;;4.37;1.90;;;17.00;43.70;;;;;;2554068;53;21465;-67
2023/05/29 02:33:39;;;;;;;4.15;2.00;;;17.00;43.70;;;;;;2314365;54;21010;-67
2023/05/29 02:36:10;;;;;;;3.28;1.77;;;16.90;43.70;;;;;;2554211;54;20986;-69
2023/05/29 02:38:36;;;;;;;4.57;1.95;;;16.90;43.80;;;;;;2554724;53;21038;-67
2023/05/29 02:41:02;;;;;;;4.35;2.12;;;16.80;43.70;;;;;;2314201;54;21023;-67
2023/05/29 02:43:29;;;;;;;5.03;2.15;;;16.80;43.80;;;;;;2316183;54;21001;-68
2023/05/29 02:45:57;;;;;;;4.22;1.87;;;16.80;43.90;;;;;;2312686;54;20955;-66
2023/05/29 02:48:23;;;;;;;4.60;1.75;;;16.80;44.10;;;;;;2314805;54;20999;-66
2023/05/29 02:50:49;;;;;;;4.20;2.00;;;16.70;44.20;;;;;;2314488;54;21075;-66
2023/05/29 02:53:15;;;;;;;4.35;2.00;;;16.70;44.30;;;;;;2554696;54;21501;-66
2023/05/29 02:55:42;;;;;;;3.78;1.83;;;16.60;44.20;;;;;;2554651;53;21385;-68
2023/05/29 02:58:08;;;;;;;3.60;1.92;;;16.70;44.30;;;;;;2314328;54;20947;-65
2023/05/29 03:00:36;;;;;;;3.83;1.75;;;16.60;44.30;;;;;;2554663;53;20970;-69
2023/05/29 03:03:03;;;;;;;4.28;2.12;;;16.60;44.30;;;;;;2313759;54;21503;-66
2023/05/29 03:05:30;;;;;;;4.03;1.87;;;16.50;44.30;;;;;;2555149;53;20935;-69
2023/05/29 03:07:57;;;;;;;4.45;2.08;;;16.50;44.40;;;;;;2554370;53;20963;-66
2023/05/29 03:10:24;;;;;;;3.90;1.92;;;16.40;44.30;;;;;;2554514;53;20959;-69
2023/05/29 03:12:51;;;;;;;4.35;2.05;;;16.40;44.50;;;;;;2314486;54;20947;-66
2023/05/29 03:15:19;;;;;;;4.05;2.03;;;16.40;44.50;;;;;;2554295;53;20952;-66
2023/05/29 03:17:46;;;;;;;5.40;2.50;;;16.30;44.50;;;;;;2314525;54;21615;-69
2023/05/29 03:20:15;;;;;;;4.32;2.12;;;16.30;44.70;;;;;;2553652;54;21405;-69
2023/05/29 03:22:42;;;;;;;3.50;1.80;;;16.30;44.80;;;;;;2554757;54;20947;-66
2023/05/29 03:25:09;;;;;;;4.18;1.90;;;16.30;44.80;;;;;;2314486;54;21107;-66
2023/05/29 03:27:35;;;;;;;4.35;2.08;;;16.30;44.80;;;;;;2315243;54;21379;-66
2023/05/29 03:30:02;;;;;;;3.87;1.90;;;16.20;44.70;;;;;;2312070;54;21054;-67
2023/05/29 03:32:28;;;;;;;3.87;1.73;;;16.20;44.80;;;;;;2549702;53;21017;-66
2023/05/29 03:34:56;;;;;;;4.62;2.00;;;16.20;44.90;;;;;;2314631;54;20951;-70
2023/05/29 03:37:22;;;;;;;4.07;2.00;;;16.10;44.90;;;;;;2314311;54;21545;-68
2023/05/29 03:39:49;;;;;;;3.80;1.90;;;16.10;45.00;;;;;;2554132;53;21003;-67
2023/05/29 03:42:16;;;;;;;5.20;2.35;;;16.10;45.00;;;;;;2554463;53;20915;-68
2023/05/29 03:44:43;;;;;;;4.22;2.17;;;16.10;45.20;;;;;;2314452;54;20967;-66
2023/05/29 03:47:10;;;;;;;3.83;2.00;;;16.00;45.20;;;;;;2314088;54;21054;-68
2023/05/29 03:49:36;;;;;;;5.12;1.77;;;16.00;45.20;;;;;;2315025;54;20983;-69
2023/05/29 03:52:04;;;;;;;4.65;2.12;;;16.00;45.20;;;;;;2314102;54;20955;-67
2023/05/29 03:54:30;;;;;;;4.18;1.95;;;16.00;45.30;;;;;;2314899;54;20971;-66
2023/05/29 03:56:57;;;;;;;4.75;2.20;;;16.00;45.30;;;;;;2553677;53;21493;-66
2023/05/29 03:59:23;;;;;;;4.00;2.20;;;15.90;45.20;;;;;;2554572;53;21015;-66
2023/05/29 04:01:50;;;;;;;5.22;2.20;;;15.90;45.30;;;;;;2555231;53;20934;-66
2023/05/29 04:04:16;;;;;;;4.93;2.35;;;15.90;45.40;;;;;;2314450;54;20959;-67
2023/05/29 04:06:44;;;;;;;4.80;1.90;;;15.90;46.10;;;;;;2314912;54;20927;-66
2023/05/29 04:09:13;;;;;;;4.20;1.98;;;15.80;45.50;;;;;;2314044;54;20975;-66
2023/05/29 04:11:41;;;;;;;3.37;1.70;;;15.80;45.50;;;;;;2314705;54;21528;-67
2023/05/29 04:14:07;;;;;;;4.30;2.35;;;15.80;45.60;;;;;;2546162;53;21017;-66
2023/05/29 04:16:34;;;;;;;5.35;1.87;;;15.80;45.70;;;;;;2550137;53;20927;-66
2023/05/29 04:19:00;;;;;;;4.22;2.03;;;15.70;45.70;;;;;;2554651;53;20939;-66
2023/05/29 04:21:26;;;;;;;5.35;2.05;;;15.70;45.70;;;;;;2314239;54;21456;-67
2023/05/29 04:23:53;;;;;;;5.55;2.20;;;15.70;45.70;;;;;;2553794;54;21385;-66
2023/05/29 04:26:20;;;;;;;4.22;2.12;;;15.80;45.90;;;;;;2554752;54;20998;-67
2023/05/29 04:28:49;;;;;;;4.35;2.10;;;15.70;45.90;;;;;;2315548;54;21005;-66
2023/05/29 04:31:16;;;;;;;4.05;1.98;;;15.70;46.00;;;;;;2310695;54;20915;-66
2023/05/29 04:33:45;;;;;;;5.62;2.40;;;15.70;46.00;;;;;;2554739;53;21370;-66
2023/05/29 04:36:13;;;;;;;4.10;2.10;;;15.60;46.00;;;;;;2313552;54;21044;-66
2023/05/29 04:38:39;;;;;;;4.10;2.20;;;15.60;46.10;;;;;;2314199;54;21054;-67
2023/05/29 04:41:08;;;;;;;5.30;2.40;;;15.60;46.20;;;;;;2554678;53;20975;-67
2023/05/29 04:43:37;;;;;;;5.47;2.65;;;15.60;46.20;;;;;;2555009;53;21408;-66
2023/05/29 04:46:04;;;;;;;4.82;2.30;;;15.60;46.40;;;;;;2314702;54;21386;-67
2023/05/29 04:48:31;;;;;;;5.45;2.87;;;15.60;46.50;;;;;;2555619;53;20967;-67
2023/05/29 04:50:59;;;;;;;5.75;2.53;;;15.70;46.60;;;;;;2314557;54;21062;-66
2023/05/29 04:53:26;;;;;;;3.97;2.20;;;15.70;46.80;;;;;;2313764;54;20978;-66
2023/05/29 04:55:53;;;;;;;5.90;2.87;;;15.70;46.80;;;;;;2314952;54;21835;-68
2023/05/29 04:58:19;;;;;;;5.25;2.62;;;15.70;46.80;;;;;;2314709;54;20963;-67
2023/05/29 05:00:47;;;;;;;4.50;2.55;;;15.70;47.00;;;;;;2555102;53;20975;-66
2023/05/29 05:03:16;;;;;;;4.72;2.47;;;15.70;47.00;;;;;;2554486;53;21070;-68
2023/05/29 05:05:43;;;;;;;4.72;2.55;;;15.70;47.00;;;;;;2314993;54;21003;-70
2023/05/29 05:08:11;;;;;;;5.37;2.70;;;15.70;47.10;;;;;;2314223;54;21003;-67
2023/05/29 05:10:38;;;;;;;5.10;2.80;;;15.70;47.20;;;;;;2314953;54;20967;-67
2023/05/29 05:13:07;;;;;;;4.80;2.15;;;15.80;47.30;;;;;;2554112;53;20966;-66
2023/05/29 05:15:33;;;;;;;4.65;2.15;;;15.80;47.40;;;;;;2315156;54;20939;-66
2023/05/29 05:18:02;;;;;;;5.28;2.50;;;15.80;47.40;;;;;;2555093;53;20947;-67
2023/05/29 05:20:30;;;;;;;5.82;2.92;;;15.90;47.40;;;;;;2314317;54;20963;-69
2023/05/29 05:22:59;;;;;;;6.20;3.47;;;15.90;47.50;;;;;;2551993;53;21607;-67
2023/05/29 05:25:26;;;;;;;6.00;3.00;;;15.90;47.60;;;;;;2312113;54;20954;-66
2023/05/29 05:27:52;;;;;;;5.35;2.70;;;15.90;47.70;;;;;;2554554;54;21073;-67
2023/05/29 05:30:18;;;;;;;6.30;3.00;;;16.00;47.80;;;;;;2554400;53;21022;-67
2023/05/29 05:32:44;;;;;;;6.35;2.95;;;16.00;47.80;;;;;;2313443;54;20921;-66
2023/05/29 05:35:11;;;;;;;6.35;2.95;;;16.10;47.90;;;;;;2313705;54;21018;-68
2023/05/29 05:37:38;;;;;;;5.90;2.58;;;16.10;47.90;;;;;;2314698;54;21050;-68
2023/05/29 05:40:06;;;;;;;4.95;2.45;;;16.20;48.00;;;;;;2314464;54;21475;-67
2023/05/29 05:42:33;;;;;;;6.82;3.05;;;16.20;48.10;;;;;;2314774;54;20954;-67
2023/05/29 05:44:59;;;;;;;7.50;2.85;;;16.30;48.20;;;;;;2314539;54;21960;-67
2023/05/29 05:47:27;;;;;;;5.12;3.03;;;16.30;48.30;;;;;;2314548;54;20940;-69
2023/05/29 05:49:54;;;;;;;6.12;3.10;;;16.40;48.40;;;;;;2555386;54;21575;-67
2023/05/29 05:52:20;;;;;;;6.32;3.00;;;16.40;48.40;;;;;;2314358;54;20952;-66
2023/05/29 05:54:47;;;;;;;4.90;2.75;;;16.30;48.40;;;;;;2314717;54;21042;-67
2023/05/29 05:57:15;;;;;;;5.60;2.75;;;16.50;48.60;;;;;;2314014;54;20932;-67
2023/05/29 05:59:44;;;;;;;4.95;2.35;;;16.50;48.60;;;;;;2555293;54;21381;-67
2023/05/29 06:02:10;;;;;;;8.07;3.05;;;16.60;48.70;;;;;;2314707;54;20950;-67
2023/05/29 06:04:36;;;;;;;5.78;2.90;;;16.70;48.80;;;;;;2315181;54;21512;-68
2023/05/29 06:07:03;;;;;;;4.93;2.60;;;16.70;48.90;;;;;;2314503;54;20947;-68
2023/05/29 06:09:29;;;;;;;6.28;2.42;;;16.80;48.90;;;;;;2554512;53;21870;-66
2023/05/29 06:11:55;;;;;;;5.37;2.50;;;16.90;49.10;;;;;;2555196;53;21257;-73
2023/05/29 06:14:22;;;;;;;9.38;2.80;;;16.90;49.10;;;;;;2554491;53;20943;-67
2023/05/29 06:16:50;;;;;;;6.90;3.17;;;17.00;49.10;;;;;;2314626;54;20959;-66
2023/05/29 06:19:16;;;;;;;6.53;3.10;;;17.10;49.20;;;;;;2553821;53;21010;-68
2023/05/29 06:21:43;;;;;;;6.05;3.00;;;17.10;49.20;;;;;;2315087;54;21432;-67
2023/05/29 06:24:09;;;;;;;5.18;2.95;;;17.20;49.30;;;;;;2554660;53;20919;-67
2023/05/29 06:26:39;;;;;;;5.90;3.10;;;17.30;49.40;;;;;;2314683;54;21390;-67
2023/05/29 06:29:06;;;;;;;5.00;2.67;;;17.40;49.50;;;;;;2312604;54;21033;-67
2023/05/29 06:31:33;;;;;;;4.87;2.50;;;17.40;49.50;;;;;;2298359;54;21052;-67
2023/05/29 06:34:00;;;;;;;5.57;2.70;;;17.50;49.50;;;;;;2536727;53;20920;-68
2023/05/29 06:36:26;;;;;;;4.93;2.37;;;17.60;49.60;;;;;;2314373;54;20963;-67
2023/05/29 06:38:52;;;;;;;4.35;2.47;;;17.60;49.60;;;;;;2554979;53;20966;-67
2023/05/29 06:41:19;;;;;;;6.78;2.95;;;17.70;49.60;;;;;;2314828;54;21062;-67
2023/05/29 06:43:48;;;;;;;5.87;2.40;;;17.80;49.80;;;;;;2555219;53;20923;-69
2023/05/29 06:46:16;;;;;;;5.65;2.47;;;17.90;49.90;;;;;;2553717;53;20955;-67
2023/05/29 06:48:42;;;;;;;7.70;3.00;;;18.00;49.90;;;;;;2554459;54;20915;-68
2023/05/29 06:51:09;;;;;;;5.70;2.85;;;18.10;49.90;;;;;;2313795;54;21512;-67
2023/05/29 06:53:36;;;;;;;4.87;2.67;;;18.20;49.90;;;;;;2314599;54;20984;-67
2023/05/29 06:56:02;;;;;;;6.20;2.80;;;18.30;49.80;;;;;;2315673;54;20973;-69
2023/05/29 06:58:30;;;;;;;5.40;2.62;;;18.40;49.80;;;;;;2552417;53;20967;-69
2023/05/29 07:00:56;;;;;;;4.25;2.58;;;18.40;49.60;;;;;;2554222;54;20947;-69
2023/05/29 07:03:23;;;;;;;4.95;2.65;;;18.50;49.60;;;;;;2313924;54;20950;-69
2023/05/29 07:05:50;;;;;;;5.53;2.40;;;18.60;49.60;;;;;;2554685;54;20998;-69
2023/05/29 07:08:16;;;;;;;4.95;2.62;;;18.70;49.60;;;;;;2554147;53;21860;-69
2023/05/29 07:10:44;;;;;;;5.72;2.47;;;18.80;49.70;;;;;;2554798;53;20951;-69
2023/05/29 07:13:13;;;;;;;6.15;2.87;;;18.90;50.40;;;;;;2554255;53;20955;-69
2023/05/29 07:15:40;;;;;;;4.80;2.83;;;19.00;50.00;;;;;;2554687;54;20995;-71
2023/05/29 07:18:06;;;;;;;6.93;2.75;;;19.10;50.10;;;;;;2554953;53;20936;-68
2023/05/29 07:20:32;;;;;;;4.40;2.00;;;19.20;50.10;;;;;;2314118;54;20971;-69
2023/05/29 07:23:00;;;;;;;4.97;2.45;;;19.30;50.00;;;;;;2553643;53;20955;-70
2023/05/29 07:25:26;;;;;;;6.45;2.78;;;19.40;50.00;;;;;;2314280;54;20990;-70
2023/05/29 07:27:54;;;;;;;4.45;2.00;;;19.50;49.90;;;;;;2554527;53;20996;-68
2023/05/29 07:30:21;;;;;;;4.90;2.17;;;19.60;49.70;;;;;;2554187;53;21118;-68
2023/05/29 07:32:47;;;;;;;3.95;1.90;;;19.70;49.60;;;;;;2555350;54;20939;-69
2023/05/29 07:35:14;;;;;;;5.60;2.10;;;19.80;49.50;;;;;;2554641;53;21035;-68
2023/05/29 07:37:40;;;;;;;5.35;2.10;;;19.90;49.50;;;;;;2554939;53;21468;-68
2023/05/29 07:40:07;;;;;;;3.80;2.00;;;20.00;49.40;;;;;;2554654;53;20932;-69
2023/05/29 07:42:33;;;;;;;4.35;2.17;;;20.10;49.40;;;;;;2554509;53;20923;-72
2023/05/29 07:45:00;;;;;;;4.32;2.20;;;20.30;49.70;;;;;;2314348;54;20935;-68
2023/05/29 07:47:26;;;;;;;5.62;2.12;;;20.30;49.50;;;;;;2554411;53;20927;-72
2023/05/29 07:49:53;;;;;;;4.43;2.30;;;20.40;49.20;;;;;;2549321;54;20936;-70
2023/05/29 07:52:20;;;;;;;4.82;2.00;;;20.60;49.10;;;;;;2553275;54;20970;-71
2023/05/29 07:54:46;;;;;;;6.00;1.95;;;20.70;49.00;;;;;;2317755;54;20943;-68
2023/05/29 07:57:13;;;;;;;3.85;1.95;;;20.80;49.00;;;;;;2549238;53;22006;-68
2023/05/29 08:00:08;;;;;;;4.93;2.20;;;20.90;49.00;;;;;;2554681;53;20980;-67
2023/05/29 08:02:44;;;;;;;6.00;1.92;;;21.00;48.80;;;;;;2314928;54;21002;-67
2023/05/29 08:05:17;;;;;;;5.32;2.00;;;21.10;48.70;;;;;;2555143;53;21019;-72
2023/05/29 08:08:00;;;;;;;6.05;2.33;;;21.20;48.60;;;;;;2313711;54;21034;-69
2023/05/29 08:12:02;;;;;;;;;;;;;;;;;;;;;
2023/05/29 10:08:03;;;;;;;2.80;1.05;;;24.90;46.10;;;;;;2446917;54;21037;-71
2023/05/29 10:14:35;;;;;;;2.72;1.30;;;25.00;45.90;;;;;;2509785;54;20958;-72
2023/05/29 10:31:00;;;;;;;;;;;;;;;;;;;;;
2023/05/29 11:19:50;;;;;;;;;;;;;;;;;;;;;
2023/05/29 11:25:06;;;;;;;3.28;1.48;;;27.20;43.30;;;;;;2546083;53;21023;-72
2023/05/29 12:58:00;;;;;;;4.72;1.95;;;27.50;43.20;;;;;;2535855;52;21058;-73
2023/05/29 13:04:15;;;;;;;3.95;1.92;;;28.70;41.70;;;;;;2260463;55;25254;-70
2023/05/29 13:07:13;;;;;;;3.37;1.87;;;29.30;39.30;;;;;;2414375;55;21013;-69
2023/05/29 13:11:08;;;;;;;4.62;1.92;;;29.30;38.80;;;;;;2330211;55;21037;-70
2023/05/29 13:14:29;;;;;;;3.60;1.90;;;29.30;39.30;;;;;;2192442;56;21013;-73
2023/05/29 13:35:27;;;;;;;3.58;1.90;;;29.40;38.40;;;;;;2442007;56;21046;-70
2023/05/29 13:43:35;;;;;;;3.62;1.87;;;29.80;37.20;;;;;;2467377;55;21049;-69
2023/05/29 13:48:33;;;;;;;5.28;1.95;;;29.80;36.50;;;;;;2225087;56;20965;-68
2023/05/29 13:55:09;;;;;;;;;;;;;;;;;;;;;
2023/05/29 14:00:49;;;;;;;4.28;1.80;;;29.80;35.80;;;;;;2271491;59;21056;-70
2023/05/29 14:09:26;;;;;;;;;;;;;;;;;;;;;
2023/05/29 14:13:13;;;;;;;3.53;1.87;;;29.90;36.10;;;;;;2390133;57;21178;-69
2023/05/29 14:16:58;;;;;;;;;;;;;;;;;;;;;
2023/05/29 14:20:22;;;;;;;3.40;1.60;;;29.90;35.70;;;;;;2100605;62;21175;-69
2023/05/29 14:26:46;;;;;;;;;;;;;;;;;;;;;
2023/05/29 14:45:33;;;;;;;3.40;1.55;;;30.00;35.40;;;;;;2309960;58;21177;-68
2023/05/29 14:49:15;;;;;;;;;;;;;;;;;;;;;
2023/05/29 14:52:10;;;;;;;3.00;1.60;;;30.00;34.50;;;;;;2282872;59;21033;-72
2023/05/29 14:54:56;;;;;;;3.22;1.87;;;30.00;34.30;;;;;;2328853;58;21049;-68
2023/05/29 15:01:30;;;;;;;;;;;;;;;;;;;;;
2023/05/29 15:24:50;;;;;;;3.75;1.45;;;30.00;34.80;;;;;;2347697;57;20102;-69
2023/05/29 15:31:41;;;;;;;2.72;1.40;;;30.10;34.60;;;;;;2294028;59;21083;-70
2023/05/29 16:04:10;;;;;;;4.25;1.25;;;29.90;33.50;;;;;;2438503;56;21047;-72
2023/05/29 16:12:44;;;;;;;2.72;1.23;;;29.80;33.40;;;;;;2446466;55;21021;-72
2023/05/29 16:15:45;;;;;;;;;;;;;;;;;;;;;
2023/05/29 16:19:25;;;;;;;2.83;1.50;;;29.70;32.50;;;;;;2298778;60;21145;-69
2023/05/29 16:22:29;;;;;;;3.47;1.30;;;29.70;32.70;;;;;;2290169;59;21039;-68
2023/05/29 16:26:00;;;;;;;;;;;;;;;;;;;;;
2023/05/29 16:30:28;;;;;;;;;;;;;;;;;;;;;
2023/05/29 16:39:53;;;;;;;3.55;1.60;;;29.70;32.90;;;;;;2222069;62;21124;-69
2023/05/29 16:45:56;;;;;;;2.83;1.37;;;29.70;32.30;;;;;;2041794;62;21143;-73
2023/05/29 16:49:32;;;;;;;3.05;1.37;;;29.70;32.60;;;;;;2207895;62;21062;-69
2023/05/29 16:53:28;;;;;;;2.50;1.35;;;29.80;32.10;;;;;;2157183;63;21097;-73
2023/05/29 17:12:59;;;;;;;2.65;1.20;;;29.70;31.70;;;;;;2047789;63;21428;-70
2023/05/29 17:17:08;;;;;;;2.17;1.00;;;29.60;31.90;;;;;;2291462;59;21078;-69
2023/05/29 17:46:19;;;;;;;;;;;;;;;;;;;;;
2023/05/29 18:12:32;;;;;;;2.30;1.02;;;30.40;31.90;;;;;;2215136;56;21011;-70
2023/05/29 18:15:52;;;;;;;2.20;0.90;;;30.60;31.80;;;;;;2405661;56;21003;-74
2023/05/29 18:18:32;;;;;;;2.95;0.70;;;30.70;31.30;;;;;;2386227;57;20978;-71
2023/05/29 18:27:12;;;;;;;2.62;1.00;;;30.80;31.60;;;;;;2329636;57;21920;-71
2023/05/29 18:30:17;;;;;;;2.50;0.93;;;30.90;31.30;;;;;;2205361;57;21100;-72
2023/05/29 18:36:36;;;;;;;2.00;0.93;;;30.80;30.90;;;;;;2208779;57;21057;-70
2023/05/29 18:39:41;;;;;;;1.70;0.75;;;30.70;30.40;;;;;;2301917;58;22057;-69
2023/05/29 18:55:16;;;;;;;1.83;0.77;;;30.10;30.70;;;;;;2308165;59;21015;-71
2023/05/29 19:10:44;;;;;;;1.83;0.80;;;29.90;30.90;;;;;;2311738;59;21931;-71
2023/05/29 19:14:18;;;;;;;1.37;0.57;;;29.70;30.80;;;;;;2226621;57;20983;-70
2023/05/29 19:17:10;;;;;;;1.35;0.62;;;29.10;31.20;;;;;;2202439;56;21000;-73
2023/05/29 19:19:51;;;;;;;1.92;0.70;;;28.90;31.10;;;;;;2192552;57;21025;-70
2023/05/29 19:22:22;;;;;;;2.37;0.90;;;28.70;31.30;;;;;;2444385;56;21415;-73
2023/05/29 19:26:28;;;;;;;;;;;;;;;;;;;;;
2023/05/29 19:32:10;;;;;;;2.60;0.80;;;28.50;31.50;;;;;;2396694;56;21059;-73
2023/05/29 19:34:51;;;;;;;1.50;0.68;;;28.10;31.50;;;;;;2406599;57;20974;-69
2023/05/29 19:37:47;;;;;;;4.05;0.98;;;28.00;31.30;;;;;;2201894;57;21094;-70
2023/05/29 19:44:25;;;;;;;;;;;;;;;;;;;;;
2023/05/29 19:52:27;;;;;;;1.98;0.70;;;27.50;31.60;;;;;;2335846;59;21115;-70
2023/05/29 19:57:11;;;;;;;1.60;0.60;;;27.30;31.80;;;;;;2217559;56;21014;-70
2023/05/29 21:32:42;;;;;;;1.48;0.55;;;25.30;33.10;;;;;;2386827;55;23253;-70
2023/05/29 21:35:59;;;;;;;2.10;0.85;;;22.80;34.80;;;;;;2377888;56;21073;-68
2023/05/29 21:41:55;;;;;;;1.55;0.70;;;22.60;34.80;;;;;;2422493;56;21930;-73
2023/05/29 21:45:10;;;;;;;2.20;0.80;;;22.40;35.00;;;;;;2422800;56;20999;-67
2023/05/29 21:48:06;;;;;;;1.73;0.73;;;22.30;35.20;;;;;;2401347;56;21090;-72
2023/05/29 21:50:34;;;;;;;2.35;0.70;;;22.20;35.20;;;;;;2401332;56;21039;-71
2023/05/29 21:53:07;;;;;;;1.65;0.90;;;22.20;35.40;;;;;;2406132;56;20960;-74
2023/05/29 21:55:48;;;;;;;2.30;1.00;;;22.10;35.60;;;;;;2419432;56;20966;-68
2023/05/29 21:58:15;;;;;;;2.25;1.00;;;22.00;35.70;;;;;;2413748;56;20977;-71
2023/05/29 22:00:41;;;;;;;2.08;0.95;;;21.90;35.70;;;;;;2410567;56;21020;-69
2023/05/29 22:03:10;;;;;;;2.20;0.90;;;21.90;35.80;;;;;;2230698;56;20998;-68
2023/05/29 22:05:41;;;;;;;1.98;0.80;;;21.80;35.90;;;;;;2454056;56;21008;-68
2023/05/29 22:08:08;;;;;;;2.30;0.90;;;21.80;36.00;;;;;;2463490;55;21006;-69
2023/05/29 22:10:34;;;;;;;2.10;0.90;;;21.80;36.20;;;;;;2490849;55;20964;-71
2023/05/29 22:13:04;;;;;;;2.20;0.90;;;21.70;36.20;;;;;;2491401;55;20975;-68
2023/05/29 22:15:33;;;;;;;4.87;1.12;;;21.70;36.30;;;;;;2262111;56;21035;-68
2023/05/29 22:18:01;;;;;;;2.85;1.10;;;21.60;36.40;;;;;;2491647;55;20948;-68
2023/05/29 22:20:27;;;;;;;2.83;1.20;;;21.60;36.50;;;;;;2262745;56;20955;-69
2023/05/29 22:22:53;;;;;;;2.87;1.37;;;21.50;36.60;;;;;;2491461;55;20972;-68
2023/05/29 22:25:22;;;;;;;2.87;1.30;;;21.50;36.70;;;;;;2262027;57;21046;-68
2023/05/29 22:27:49;;;;;;;2.87;1.25;;;21.40;36.70;;;;;;2263099;57;20963;-69
2023/05/29 22:30:15;;;;;;;2.92;1.33;;;21.40;36.90;;;;;;2261711;57;21804;-68
2023/05/29 22:32:41;;;;;;;3.12;1.40;;;21.40;37.10;;;;;;2491621;55;21030;-69
2023/05/29 22:35:11;;;;;;;4.95;1.55;;;21.30;37.20;;;;;;2262749;57;20935;-68
2023/05/29 22:37:37;;;;;;;2.53;1.27;;;21.30;37.30;;;;;;2237363;57;21031;-70
2023/05/29 22:40:09;;;;;;;3.30;1.30;;;21.30;37.40;;;;;;2236783;57;20979;-68
2023/05/29 22:42:37;;;;;;;2.97;1.40;;;21.30;37.50;;;;;;2464715;55;21055;-70
2023/05/29 22:45:08;;;;;;;2.92;1.40;;;21.30;37.60;;;;;;2236141;56;20991;-68
2023/05/29 22:47:36;;;;;;;2.62;1.08;;;21.30;37.70;;;;;;2459556;56;21038;-70
2023/05/29 22:50:02;;;;;;;2.95;1.37;;;21.30;37.80;;;;;;2437438;56;20939;-70
2023/05/29 22:52:29;;;;;;;3.03;1.20;;;21.30;37.80;;;;;;2222015;57;21007;-68
2023/05/29 22:54:55;;;;;;;2.40;1.10;;;21.30;37.90;;;;;;2405481;56;21038;-67
2023/05/29 22:57:22;;;;;;;3.03;1.10;;;21.20;37.90;;;;;;2454910;56;20963;-68
2023/05/29 22:59:48;;;;;;;2.70;1.20;;;21.20;38.00;;;;;;2231539;57;20963;-68
2023/05/29 23:02:15;;;;;;;2.95;1.45;;;21.20;38.10;;;;;;2232138;57;20971;-68
2023/05/29 23:04:43;;;;;;;3.03;1.58;;;21.20;38.10;;;;;;2232041;57;20982;-68
2023/05/29 23:07:12;;;;;;;3.03;1.42;;;21.20;38.20;;;;;;2454453;56;20939;-68
2023/05/29 23:09:39;;;;;;;3.50;1.62;;;21.20;38.30;;;;;;2430020;56;21020;-68
2023/05/29 23:12:09;;;;;;;2.78;1.45;;;21.20;38.40;;;;;;2213025;56;21822;-67
2023/05/29 23:14:35;;;;;;;4.37;1.75;;;21.20;38.50;;;;;;2443695;55;21027;-67
2023/05/29 23:17:05;;;;;;;3.10;1.45;;;21.20;38.60;;;;;;2236170;56;21885;-70
2023/05/29 23:19:32;;;;;;;3.20;1.73;;;21.20;38.70;;;;;;2236041;56;21043;-69
2023/05/29 23:22:01;;;;;;;4.25;1.60;;;21.20;39.50;;;;;;2236462;56;20969;-67
2023/05/29 23:24:27;;;;;;;4.15;1.83;;;21.20;39.00;;;;;;2235854;56;20963;-68
2023/05/29 23:26:54;;;;;;;3.40;1.48;;;21.10;39.00;;;;;;2232001;56;21515;-68
2023/05/29 23:29:20;;;;;;;3.22;1.60;;;21.20;39.20;;;;;;2217075;56;21029;-67
2023/05/29 23:31:48;;;;;;;3.28;1.70;;;21.10;39.20;;;;;;2213431;56;21028;-67
2023/05/29 23:34:15;;;;;;;5.00;1.60;;;21.10;39.30;;;;;;2217577;56;20952;-68
2023/05/29 23:36:42;;;;;;;3.33;1.70;;;21.10;39.30;;;;;;2442845;56;21888;-71
2023/05/29 23:39:09;;;;;;;2.80;1.50;;;21.10;39.40;;;;;;2221968;56;21047;-68
2023/05/29 23:41:36;;;;;;;4.35;1.80;;;21.10;39.40;;;;;;2438532;56;21087;-69
2023/05/29 23:44:05;;;;;;;4.68;1.80;;;21.10;39.50;;;;;;2226411;56;20965;-69
2023/05/29 23:46:32;;;;;;;3.50;1.52;;;21.10;39.60;;;;;;2458268;55;20991;-69
2023/05/29 23:48:58;;;;;;;4.85;1.55;;;21.10;39.60;;;;;;2459573;55;21040;-68
2023/05/29 23:51:26;;;;;;;3.87;1.70;;;21.10;39.70;;;;;;2235834;56;20952;-68
2023/05/29 23:53:53;;;;;;;3.33;1.60;;;21.10;39.70;;;;;;2426737;56;21109;-68
2023/05/29 23:56:19;;;;;;;3.37;1.50;;;21.20;39.90;;;;;;2207565;57;21043;-67
2023/05/29 23:58:48;;;;;;;3.92;1.65;;;21.10;40.00;;;;;;2221002;56;20994;-68
